Time;durP1;ratioP1;P1;durP2;ratioP2;P2;SDS_P1;SDS_P2;PMS_P1;PMS_P2;Temp;Humidity;BMP_temperature;BMP_pressure;BME280_temperature;BME280_humidity;BME280_pressure;Samples;Min_cycle;Max_cycle;Signal;HPM_P1;HPM_P2
2022/05/28 00:01:03;;;;;;;1.07;0.97;;;11.20;77.70;11.20;100480.00;;;;4955174;28;102122;-66
2022/05/28 00:03:30;;;;;;;3.37;1.27;;;11.20;78.50;11.20;100473.00;;;;4955595;28;110913;-65
2022/05/28 00:05:56;;;;;;;4.80;2.00;;;11.20;79.00;11.20;100477.00;;;;4956385;28;87714;-66
2022/05/28 00:08:24;;;;;;;3.00;1.97;;;11.20;79.20;11.20;100477.00;;;;4955259;28;108219;-66
2022/05/28 00:10:51;;;;;;;2.30;1.73;;;11.20;79.60;11.10;100473.00;;;;4954738;28;88923;-66
2022/05/28 00:13:17;;;;;;;2.00;1.43;;;11.10;79.80;11.10;100480.00;;;;4955333;28;87895;-65
2022/05/28 00:15:43;;;;;;;1.27;1.17;;;11.10;80.40;11.00;100474.00;;;;4955468;28;109554;-66
2022/05/28 00:18:09;;;;;;;2.13;1.77;;;11.10;80.70;11.00;100472.00;;;;4955854;28;87896;-66
2022/05/28 00:20:36;;;;;;;2.07;1.43;;;11.00;81.30;11.00;100461.00;;;;4954652;28;118040;-66
2022/05/28 00:23:02;;;;;;;0.93;0.93;;;11.00;81.80;10.90;100469.00;;;;4954623;28;117388;-66
2022/05/28 00:25:28;;;;;;;6.43;1.50;;;10.90;81.80;10.80;100459.00;;;;4949746;28;88094;-66
2022/05/28 00:27:54;;;;;;;4.30;0.80;;;10.90;82.70;10.80;100468.00;;;;4936279;28;89818;-66
2022/05/28 00:30:20;;;;;;;3.37;1.13;;;10.80;83.00;10.80;100458.00;;;;4935131;28;116834;-65
2022/05/28 00:32:46;;;;;;;3.87;1.20;;;10.80;83.30;10.80;100473.00;;;;4936040;28;87947;-66
2022/05/28 00:35:16;;;;;;;1.30;0.50;;;10.80;83.80;10.80;100464.00;;;;4935952;28;87801;-65
2022/05/28 00:37:43;;;;;;;1.70;0.70;;;10.80;84.20;10.80;100461.00;;;;4935639;28;101553;-66
2022/05/28 00:40:23;;;;;;;6.37;1.17;;;10.80;84.70;10.80;100468.00;;;;4950653;28;87545;-66
2022/05/28 00:42:49;;;;;;;1.47;1.00;;;10.80;84.80;10.80;100463.00;;;;4935471;28;88156;-66
2022/05/28 00:45:15;;;;;;;1.70;1.03;;;10.80;85.40;10.80;100458.00;;;;4936025;28;87831;-66
2022/05/28 00:47:52;;;;;;;1.13;1.00;;;10.80;85.80;10.80;100460.00;;;;4942859;28;108889;-67
2022/05/28 00:50:18;;;;;;;0.70;0.70;;;10.80;86.30;10.80;100458.00;;;;4966389;28;88217;-66
2022/05/28 00:52:45;;;;;;;1.60;0.70;;;10.80;86.70;10.80;100460.00;;;;4935101;28;88245;-66
2022/05/28 00:55:14;;;;;;;3.27;1.00;;;10.80;87.40;10.80;100462.00;;;;4936462;28;87602;-66
2022/05/28 00:57:41;;;;;;;1.20;1.10;;;10.80;87.50;10.70;100452.00;;;;4935630;28;87968;-66
2022/05/28 01:00:11;;;;;;;0.70;0.57;;;10.70;87.80;10.70;100449.00;;;;4936313;28;88240;-66
2022/05/28 01:02:58;;;;;;;0.73;0.60;;;10.70;87.80;10.60;100455.00;;;;4934169;28;109113;-66
2022/05/28 01:05:51;;;;;;;1.27;0.93;;;10.70;88.30;10.60;100446.00;;;;4960650;28;86938;-66
2022/05/28 01:08:37;;;;;;;1.70;1.13;;;10.70;89.00;10.60;100449.00;;;;4935446;28;87675;-67
2022/05/28 01:11:44;;;;;;;0.40;0.40;;;10.60;89.10;10.60;100444.00;;;;4935010;28;88619;-66
2022/05/28 01:14:21;;;;;;;1.17;0.87;;;10.60;89.50;10.70;100455.00;;;;4948751;28;88863;-66
2022/05/28 01:16:57;;;;;;;0.97;0.40;;;10.60;90.00;10.70;100443.00;;;;4949693;28;93938;-66
2022/05/28 01:19:59;;;;;;;1.43;0.70;;;10.70;90.00;10.70;100446.00;;;;4913954;28;96616;-66
2022/05/28 01:22:55;;;;;;;0.57;0.57;;;10.70;90.10;10.70;100445.00;;;;4931973;28;88050;-67
2022/05/28 01:25:36;;;;;;;0.53;0.53;;;10.70;90.20;10.70;100443.00;;;;4911308;28;112332;-66
2022/05/28 01:28:07;;;;;;;0.60;0.50;;;10.70;90.30;10.80;100461.00;;;;4935923;28;102811;-66
2022/05/28 01:30:34;;;;;;;0.43;0.43;;;10.70;90.40;10.80;100458.00;;;;4936893;28;87809;-67
2022/05/28 01:33:02;;;;;;;0.93;0.67;;;10.80;90.50;10.90;100469.00;;;;4969608;28;87394;-67
2022/05/28 01:35:30;;;;;;;0.80;0.60;;;10.90;90.50;11.00;100474.00;;;;4954167;28;96630;-67
2022/05/28 01:37:58;;;;;;;3.30;0.83;;;10.90;90.80;11.00;100491.00;;;;4969446;28;87941;-66
2022/05/28 01:40:24;;;;;;;1.70;0.80;;;11.00;92.90;10.90;100506.00;;;;4969098;28;88796;-67
2022/05/28 01:42:54;;;;;;;0.30;0.30;;;10.90;94.10;10.70;100497.00;;;;4954681;28;88702;-67
2022/05/28 01:45:26;;;;;;;0.37;0.23;;;10.80;95.60;10.40;100485.00;;;;4969931;28;87815;-66
2022/05/28 01:47:53;;;;;;;0.13;0.13;;;10.60;96.10;10.20;100480.00;;;;4945708;28;87681;-66
2022/05/28 01:50:23;;;;;;;0.40;0.40;;;10.30;97.10;9.90;100476.00;;;;4970107;28;87731;-67
2022/05/28 01:52:50;;;;;;;0.93;0.20;;;10.10;99.50;9.80;100480.00;;;;4935970;28;87883;-66
2022/05/28 01:55:17;;;;;;;6.13;0.40;;;9.90;99.90;9.70;100462.00;;;;4936197;28;92616;-66
2022/05/28 01:57:44;;;;;;;0.23;0.23;;;9.80;99.90;9.60;100470.00;;;;4936206;28;87305;-65
2022/05/28 02:00:11;;;;;;;0.47;0.40;;;9.70;99.90;9.50;100463.00;;;;4955098;28;87986;-65
2022/05/28 02:02:38;;;;;;;0.50;0.50;;;9.60;99.90;9.50;100455.00;;;;4935149;28;108219;-65
2022/05/28 02:05:05;;;;;;;0.27;0.20;;;9.60;99.90;9.50;100460.00;;;;4968393;28;88945;-65
2022/05/28 02:07:30;;;;;;;0.53;0.47;;;9.60;99.90;9.50;100452.00;;;;4954926;28;87928;-65
2022/05/28 02:10:05;;;;;;;0.37;0.37;;;9.70;99.90;9.50;100437.00;;;;4954575;28;87738;-65
2022/05/28 02:12:33;;;;;;;0.53;0.43;;;9.60;99.90;9.50;100418.00;;;;4954361;28;88856;-65
2022/05/28 02:15:21;;;;;;;0.17;0.17;;;9.60;99.90;9.40;100419.00;;;;4954899;28;87928;-65
2022/05/28 02:17:53;;;;;;;0.27;0.23;;;9.50;99.90;9.30;100417.00;;;;4955089;28;87493;-65
2022/05/28 02:20:44;;;;;;;0.53;0.50;;;9.40;99.90;9.20;100424.00;;;;4954101;28;101503;-67
2022/05/28 02:23:39;;;;;;;0.40;0.30;;;9.30;99.90;9.10;100407.00;;;;4936125;28;88503;-67
2022/05/28 02:26:21;;;;;;;1.03;0.30;;;9.30;99.90;9.10;100412.00;;;;4953168;28;110374;-66
2022/05/28 02:28:47;;;;;;;0.47;0.47;;;9.20;99.90;9.10;100406.00;;;;4935759;28;90127;-66
2022/05/28 02:31:29;;;;;;;0.13;0.13;;;9.20;99.90;9.10;100392.00;;;;4954250;28;88859;-66
2022/05/28 02:33:56;;;;;;;1.90;0.30;;;9.20;99.90;9.10;100401.00;;;;4935608;28;88375;-67
2022/05/28 02:36:22;;;;;;;1.17;0.30;;;9.10;99.90;9.00;100393.00;;;;4956755;28;88176;-65
2022/05/28 02:38:48;;;;;;;1.00;0.40;;;9.10;99.90;9.00;100398.00;;;;4939128;28;87549;-67
2022/05/28 02:41:14;;;;;;;0.40;0.40;;;9.10;99.90;9.10;100401.00;;;;4937956;28;109476;-66
2022/05/28 02:43:46;;;;;;;0.50;0.40;;;9.10;99.90;9.10;100390.00;;;;4956324;28;118241;-66
2022/05/28 02:46:12;;;;;;;1.30;0.77;;;9.20;99.90;9.20;100388.00;;;;4959599;28;94179;-67
2022/05/28 02:48:39;;;;;;;1.07;0.47;;;9.20;99.90;9.30;100392.00;;;;4959976;28;87116;-67
2022/05/28 02:51:13;;;;;;;1.40;0.30;;;9.30;99.90;9.30;100396.00;;;;4956534;28;87917;-68
2022/05/28 02:53:39;;;;;;;0.73;0.57;;;9.30;99.90;9.40;100391.00;;;;4956165;28;87957;-67
2022/05/28 02:56:07;;;;;;;0.30;0.30;;;9.40;99.90;9.40;100397.00;;;;4955703;28;117285;-67
2022/05/28 02:58:33;;;;;;;2.63;0.50;;;9.40;99.90;9.40;100381.00;;;;4957368;28;87687;-68
2022/05/28 03:01:02;;;;;;;4.07;0.63;;;9.40;99.90;9.40;100378.00;;;;4954644;28;90070;-66
2022/05/28 03:03:28;;;;;;;0.93;0.60;;;9.40;99.90;9.30;100383.00;;;;4956677;28;88019;-67
2022/05/28 03:05:55;;;;;;;0.10;0.10;;;9.40;99.90;9.20;100384.00;;;;4955780;28;118652;-67
2022/05/28 03:08:20;;;;;;;0.97;0.40;;;9.30;99.90;9.20;100380.00;;;;4956899;28;87682;-66
2022/05/28 03:10:49;;;;;;;0.30;0.30;;;9.20;99.90;9.20;100386.00;;;;4956738;28;107383;-67
2022/05/28 03:13:15;;;;;;;0.77;0.47;;;9.20;99.90;9.10;100387.00;;;;4956226;28;88142;-67
2022/05/28 03:15:41;;;;;;;3.10;0.50;;;9.20;99.90;9.20;100396.00;;;;4956562;28;115849;-67
2022/05/28 03:18:06;;;;;;;3.60;0.40;;;9.20;99.90;9.20;100388.00;;;;4956023;28;110016;-66
2022/05/28 03:20:32;;;;;;;1.73;0.70;;;9.90;99.90;9.20;100392.00;;;;4956744;28;94866;-65
2022/05/28 03:22:58;;;;;;;1.60;0.60;;;9.20;99.90;9.20;100379.00;;;;4955431;28;88148;-64
2022/05/28 03:25:25;;;;;;;0.27;0.20;;;9.20;99.90;9.30;100384.00;;;;4955741;28;118466;-65
2022/05/28 03:27:52;;;;;;;0.77;0.77;;;9.30;99.90;9.30;100387.00;;;;4957699;28;87646;-65
2022/05/28 03:30:18;;;;;;;2.23;0.50;;;9.40;99.90;9.40;100385.00;;;;4956270;28;109336;-65
2022/05/28 03:32:44;;;;;;;1.90;0.40;;;9.40;99.90;9.50;100377.00;;;;4956177;28;87870;-66
2022/05/28 03:35:19;;;;;;;1.83;0.80;;;9.50;99.90;9.40;100386.00;;;;4956488;28;88221;-65
2022/05/28 03:37:44;;;;;;;0.93;0.60;;;9.50;99.90;9.40;100400.00;;;;4956361;28;110330;-65
2022/05/28 03:40:11;;;;;;;1.23;0.53;;;9.50;99.90;9.40;100386.00;;;;4956015;28;109066;-66
2022/05/28 03:42:37;;;;;;;0.33;0.33;;;9.50;99.90;9.40;100378.00;;;;4956635;28;88719;-67
2022/05/28 03:45:04;;;;;;;0.90;0.60;;;9.40;99.90;9.40;100384.00;;;;4955104;28;116588;-66
2022/05/28 03:47:31;;;;;;;4.77;0.83;;;9.40;99.90;9.50;100377.00;;;;4959739;28;97227;-66
2022/05/28 03:49:57;;;;;;;3.73;0.73;;;9.50;99.90;9.50;100375.00;;;;4956704;28;87556;-66
2022/05/28 03:52:23;;;;;;;1.07;0.63;;;9.50;99.90;9.60;100380.00;;;;4956115;28;88803;-65
2022/05/28 03:54:48;;;;;;;0.70;0.70;;;9.50;99.90;9.60;100390.00;;;;4955817;28;117418;-65
2022/05/28 03:57:23;;;;;;;5.93;0.50;;;9.60;99.90;9.70;100392.00;;;;4955682;28;109568;-65
2022/05/28 03:59:49;;;;;;;0.63;0.57;;;9.60;99.90;9.70;100398.00;;;;4956508;28;87784;-66
2022/05/28 04:02:14;;;;;;;4.87;0.90;;;9.70;99.90;9.80;100388.00;;;;4955562;28;117269;-65
2022/05/28 04:04:40;;;;;;;0.60;0.40;;;9.70;99.90;9.90;100394.00;;;;4955877;28;116995;-66
2022/05/28 04:07:06;;;;;;;0.97;0.43;;;9.80;99.90;10.00;100395.00;;;;4955787;28;110362;-65
2022/05/28 04:09:32;;;;;;;1.27;0.53;;;10.00;99.90;10.10;100396.00;;;;4956106;28;88755;-66
2022/05/28 04:11:58;;;;;;;5.93;0.57;;;10.00;99.90;10.20;100391.00;;;;4955725;28;117046;-65
2022/05/28 04:14:23;;;;;;;1.17;0.43;;;10.10;99.90;10.20;100395.00;;;;4955125;28;116010;-65
2022/05/28 04:16:49;;;;;;;2.67;0.33;;;10.20;99.90;10.30;100384.00;;;;4956331;28;87756;-65
2022/05/28 04:19:15;;;;;;;1.40;0.77;;;10.30;99.90;10.30;100396.00;;;;4954783;28;106888;-65
2022/05/28 04:21:41;;;;;;;0.73;0.50;;;10.30;99.90;10.40;100405.00;;;;4955294;28;118123;-65
2022/05/28 04:24:07;;;;;;;0.63;0.60;;;10.40;99.90;10.50;100394.00;;;;4954883;28;118265;-65
2022/05/28 04:26:32;;;;;;;0.43;0.43;;;10.40;99.90;10.50;100396.00;;;;4955099;28;96855;-64
2022/05/28 04:28:58;;;;;;;1.53;0.77;;;10.50;99.90;10.60;100406.00;;;;4956313;28;87901;-68
2022/05/28 04:31:24;;;;;;;0.37;0.37;;;10.50;99.90;10.50;100396.00;;;;4956204;28;87847;-65
2022/05/28 04:33:51;;;;;;;0.43;0.40;;;10.50;99.90;10.40;100379.00;;;;4955771;28;89042;-66
2022/05/28 04:36:16;;;;;;;0.80;0.80;;;10.40;99.90;10.20;100387.00;;;;4955036;28;109282;-66
2022/05/28 04:38:42;;;;;;;0.83;0.70;;;10.30;99.90;10.10;100386.00;;;;4955676;28;97945;-65
2022/05/28 04:41:08;;;;;;;0.30;0.30;;;10.20;99.90;10.00;100377.00;;;;4955458;28;88864;-65
2022/05/28 04:43:34;;;;;;;2.33;0.60;;;10.10;99.90;9.90;100382.00;;;;4955659;28;95229;-65
2022/05/28 04:46:00;;;;;;;2.87;0.80;;;10.00;99.90;9.80;100377.00;;;;4956013;28;110415;-65
2022/05/28 04:48:26;;;;;;;0.67;0.50;;;9.90;99.90;9.80;100376.00;;;;4958979;28;88089;-65
2022/05/28 04:50:52;;;;;;;0.27;0.27;;;9.90;99.90;9.80;100387.00;;;;4956670;28;87767;-66
2022/05/28 04:53:18;;;;;;;0.63;0.60;;;9.80;99.90;9.80;100382.00;;;;4954101;28;117860;-67
2022/05/28 04:55:45;;;;;;;1.47;0.73;;;9.80;99.90;9.80;100388.00;;;;4954504;28;110064;-66
2022/05/28 04:58:12;;;;;;;0.30;0.30;;;9.90;99.90;9.90;100391.00;;;;4954414;28;88794;-66
2022/05/28 05:00:39;;;;;;;0.60;0.50;;;9.90;99.90;9.90;100391.00;;;;4955472;28;89338;-67
2022/05/28 05:03:05;;;;;;;0.93;0.57;;;9.90;99.90;10.00;100385.00;;;;4969896;28;88356;-66
2022/05/28 05:05:32;;;;;;;1.90;0.47;;;9.90;99.90;10.00;100371.00;;;;4955254;28;103449;-66
2022/05/28 05:07:59;;;;;;;0.30;0.30;;;10.00;99.90;10.10;100378.00;;;;4955266;28;87789;-65
2022/05/28 05:10:30;;;;;;;0.30;0.30;;;10.00;99.90;10.10;100379.00;;;;4953175;28;95826;-65
2022/05/28 05:12:58;;;;;;;0.30;0.27;;;10.10;99.90;10.20;100376.00;;;;4956086;28;116007;-65
2022/05/28 05:15:24;;;;;;;0.50;0.30;;;10.20;99.90;10.20;100386.00;;;;4957588;28;101798;-66
2022/05/28 05:17:50;;;;;;;0.80;0.70;;;10.20;99.90;10.20;100385.00;;;;4969660;28;87806;-66
2022/05/28 05:20:16;;;;;;;0.60;0.40;;;10.20;99.90;10.20;100379.00;;;;4965763;28;117244;-66
2022/05/28 05:22:41;;;;;;;0.60;0.40;;;10.20;99.90;10.30;100383.00;;;;4962939;28;118670;-66
2022/05/28 05:25:10;;;;;;;0.37;0.37;;;10.20;99.90;10.30;100382.00;;;;4968342;28;88122;-66
2022/05/28 05:27:43;;;;;;;0.93;0.63;;;10.30;99.90;10.30;100374.00;;;;4964237;28;87649;-66
2022/05/28 05:30:09;;;;;;;2.20;0.77;;;10.30;99.90;10.30;100378.00;;;;4977243;28;88086;-65
2022/05/28 05:32:35;;;;;;;0.77;0.43;;;10.30;99.90;10.30;100380.00;;;;4962876;28;108630;-65
2022/05/28 05:35:01;;;;;;;0.43;0.43;;;10.30;99.90;10.40;100381.00;;;;4970750;28;110518;-66
2022/05/28 05:37:27;;;;;;;1.33;0.70;;;10.30;99.90;10.30;100378.00;;;;4970563;28;108854;-66
2022/05/28 05:39:53;;;;;;;0.50;0.40;;;10.30;99.90;10.30;100393.00;;;;4963357;28;106153;-67
2022/05/28 05:42:18;;;;;;;0.73;0.50;;;10.30;99.90;10.30;100388.00;;;;4969898;28;104848;-66
2022/05/28 05:44:44;;;;;;;1.03;0.47;;;10.30;99.90;10.40;100384.00;;;;4966536;28;110222;-66
2022/05/28 05:47:10;;;;;;;2.83;0.50;;;10.30;99.90;10.50;100399.00;;;;4970438;28;88934;-66
2022/05/28 05:49:35;;;;;;;0.57;0.40;;;10.40;99.90;10.50;100391.00;;;;4963455;28;117974;-66
2022/05/28 05:52:02;;;;;;;0.50;0.47;;;10.50;99.90;10.70;100401.00;;;;4969662;28;118077;-66
2022/05/28 05:54:28;;;;;;;0.50;0.50;;;10.60;99.90;10.80;100395.00;;;;4966863;28;88245;-67
2022/05/28 05:56:54;;;;;;;3.00;0.40;;;10.70;99.90;11.00;100370.00;;;;4971157;28;107248;-66
2022/05/28 05:59:21;;;;;;;0.47;0.47;;;10.90;99.90;11.10;100390.00;;;;4965717;28;88760;-66
2022/05/28 06:01:47;;;;;;;1.30;0.40;;;11.10;99.90;11.30;100400.00;;;;4964936;28;88890;-67
2022/05/28 06:04:12;;;;;;;0.93;0.50;;;11.20;99.90;11.40;100384.00;;;;4965472;28;110409;-67
2022/05/28 06:06:39;;;;;;;0.97;0.50;;;11.30;99.90;11.60;100393.00;;;;4967435;28;108509;-66
2022/05/28 06:09:05;;;;;;;0.83;0.53;;;11.50;99.90;11.80;100377.00;;;;4968625;28;103324;-66
2022/05/28 06:11:40;;;;;;;0.60;0.40;;;11.60;99.90;11.90;100394.00;;;;4973115;28;88898;-66
2022/05/28 06:14:06;;;;;;;0.60;0.50;;;11.80;99.90;11.90;100386.00;;;;4958888;28;109490;-66
2022/05/28 06:16:32;;;;;;;0.87;0.60;;;11.80;99.90;11.90;100389.00;;;;4973239;28;108836;-67
2022/05/28 06:18:58;;;;;;;0.77;0.43;;;11.80;99.90;11.80;100392.00;;;;4967930;28;112475;-66
2022/05/28 06:21:25;;;;;;;2.60;0.80;;;11.80;99.90;11.70;100386.00;;;;4974732;28;96193;-67
2022/05/28 06:23:51;;;;;;;0.27;0.20;;;11.70;99.90;11.70;100381.00;;;;4964756;28;87912;-67
2022/05/28 06:26:17;;;;;;;0.97;0.47;;;11.70;99.90;11.60;100370.00;;;;4968714;28;87856;-67
2022/05/28 06:28:43;;;;;;;0.77;0.70;;;11.60;99.90;11.50;100394.00;;;;4969699;28;118248;-66
2022/05/28 06:31:11;;;;;;;0.30;0.30;;;11.60;99.90;11.50;100381.00;;;;4965077;28;107663;-67
2022/05/28 06:33:38;;;;;;;0.40;0.40;;;11.50;99.90;11.40;100397.00;;;;4967213;28;89605;-67
2022/05/28 06:36:07;;;;;;;1.30;0.67;;;11.40;99.90;11.40;100392.00;;;;4964819;28;89987;-66
2022/05/28 06:38:33;;;;;;;0.80;0.60;;;11.40;99.90;11.40;100391.00;;;;4966979;28;101643;-67
2022/05/28 06:41:00;;;;;;;0.30;0.30;;;11.40;99.90;11.50;100392.00;;;;4968087;28;108998;-67
2022/05/28 06:43:26;;;;;;;0.20;0.20;;;11.50;99.90;11.60;100396.00;;;;4972644;28;87929;-67
2022/05/28 06:45:53;;;;;;;0.33;0.27;;;11.60;99.90;11.80;100382.00;;;;4966436;28;87928;-67
2022/05/28 06:48:25;;;;;;;0.40;0.40;;;11.60;99.90;11.90;100391.00;;;;4963333;28;87669;-66
2022/05/28 06:51:02;;;;;;;0.47;0.40;;;11.80;99.90;12.00;100390.00;;;;4965508;28;117115;-67
2022/05/28 06:53:48;;;;;;;0.20;0.20;;;11.90;99.90;12.20;100393.00;;;;4963747;28;87201;-66
2022/05/28 06:56:16;;;;;;;0.40;0.40;;;12.10;99.90;12.50;100398.00;;;;4973238;28;88328;-67
2022/05/28 06:58:43;;;;;;;0.70;0.50;;;12.30;99.90;12.90;100401.00;;;;4973735;28;88258;-67
2022/05/28 07:01:10;;;;;;;4.70;0.57;;;12.60;99.90;13.10;100388.00;;;;4954716;28;88971;-68
2022/05/28 07:03:38;;;;;;;0.97;0.73;;;12.90;99.90;13.10;100389.00;;;;4970468;28;100749;-67
2022/05/28 07:06:04;;;;;;;2.97;0.77;;;13.00;99.60;13.10;100395.00;;;;4971782;28;98685;-67
2022/05/28 07:08:30;;;;;;;2.30;0.50;;;13.10;98.70;13.00;100383.00;;;;4965683;28;109985;-66
2022/05/28 07:10:59;;;;;;;0.50;0.40;;;13.00;98.40;12.90;100393.00;;;;4972023;28;118137;-66
2022/05/28 07:13:27;;;;;;;0.60;0.60;;;12.90;98.10;12.80;100382.00;;;;4970368;28;87774;-67
2022/05/28 07:16:05;;;;;;;1.00;0.43;;;12.80;98.10;12.70;100391.00;;;;4966158;28;87719;-66
2022/05/28 07:18:32;;;;;;;1.13;0.67;;;12.70;98.70;12.80;100383.00;;;;4949064;28;87058;-67
2022/05/28 07:20:58;;;;;;;3.03;0.70;;;12.80;98.70;12.90;100397.00;;;;4966147;28;87726;-66
2022/05/28 07:23:27;;;;;;;0.50;0.50;;;12.80;98.60;12.90;100389.00;;;;4967364;28;110774;-67
2022/05/28 07:26:14;;;;;;;0.40;0.40;;;12.80;98.50;12.90;100393.00;;;;4972441;28;88688;-67
2022/05/28 07:28:42;;;;;;;0.60;0.30;;;12.80;98.20;12.90;100390.00;;;;4971603;28;88480;-67
2022/05/28 07:31:18;;;;;;;3.70;0.77;;;12.80;97.90;12.90;100389.00;;;;4966321;28;88077;-67
2022/05/28 07:33:45;;;;;;;1.93;0.53;;;12.80;97.40;13.00;100394.00;;;;4967772;28;88723;-67
2022/05/28 07:36:18;;;;;;;0.37;0.30;;;12.90;95.80;13.30;100395.00;;;;4967628;28;89810;-66
2022/05/28 07:38:44;;;;;;;0.50;0.40;;;13.10;94.20;13.50;100386.00;;;;4970145;28;88213;-67
2022/05/28 07:41:17;;;;;;;0.30;0.30;;;13.40;93.40;13.60;100382.00;;;;4971878;28;88000;-67
2022/05/28 07:43:44;;;;;;;1.33;0.43;;;13.50;92.20;13.70;100380.00;;;;4960201;28;87118;-67
2022/05/28 07:46:25;;;;;;;0.40;0.30;;;13.60;92.40;13.70;100403.00;;;;4973101;28;87699;-67
2022/05/28 07:48:53;;;;;;;1.43;0.73;;;13.70;92.00;13.70;100402.00;;;;4959029;28;110441;-67
2022/05/28 07:51:19;;;;;;;3.10;0.80;;;13.60;93.20;13.70;100398.00;;;;4970925;28;110887;-67
2022/05/28 07:53:45;;;;;;;2.17;0.37;;;13.60;93.50;13.70;100395.00;;;;4965127;28;111804;-67
2022/05/28 07:56:11;;;;;;;1.07;0.43;;;13.70;92.10;13.80;100389.00;;;;4966023;28;87998;-68
2022/05/28 07:58:37;;;;;;;0.33;0.30;;;13.70;91.50;13.90;100373.00;;;;4967114;28;116515;-67
2022/05/28 08:01:04;;;;;;;0.40;0.40;;;13.80;91.60;14.00;100385.00;;;;4964267;28;117431;-67
2022/05/28 08:03:52;;;;;;;1.43;0.87;;;13.90;89.50;14.00;100375.00;;;;4967291;28;87784;-67
2022/05/28 08:06:19;;;;;;;0.27;0.23;;;13.90;89.40;14.10;100392.00;;;;4982631;28;87654;-67
2022/05/28 08:08:45;;;;;;;0.40;0.40;;;14.00;88.00;14.20;100376.00;;;;4966399;28;86907;-67
2022/05/28 08:11:11;;;;;;;2.77;0.50;;;14.10;86.30;14.20;100395.00;;;;4984234;28;87972;-66
2022/05/28 08:13:37;;;;;;;2.87;1.30;;;14.10;84.80;14.20;100386.00;;;;4956009;28;109487;-67
2022/05/28 08:16:04;;;;;;;0.63;0.60;;;14.10;87.40;13.90;100414.00;;;;4970309;28;109260;-67
2022/05/28 08:18:29;;;;;;;0.50;0.27;;;14.00;92.50;13.00;100404.00;;;;4946554;28;88374;-66
2022/05/28 08:23:43;;;;;;;0.30;0.30;;;12.70;98.60;11.70;100409.00;;;;4958064;28;88044;-66
2022/05/28 08:26:11;;;;;;;0.50;0.50;;;12.10;99.90;11.60;100400.00;;;;4971491;28;87643;-65
2022/05/28 08:28:39;;;;;;;4.33;1.50;;;11.70;99.90;11.60;100402.00;;;;4964237;28;88603;-66
2022/05/28 08:31:05;;;;;;;1.27;0.87;;;11.70;99.90;11.90;100397.00;;;;4967636;28;87980;-68
2022/05/28 08:33:32;;;;;;;2.87;0.40;;;11.80;99.90;12.20;100400.00;;;;4932498;28;110560;-66
2022/05/28 08:35:59;;;;;;;1.03;0.90;;;12.10;99.90;12.60;100403.00;;;;4948303;28;87772;-67
2022/05/28 08:38:26;;;;;;;1.40;0.87;;;12.30;99.90;12.90;100405.00;;;;4958417;28;88666;-67
2022/05/28 08:40:59;;;;;;;2.60;0.87;;;12.70;99.90;13.20;100398.00;;;;4971067;28;88713;-67
2022/05/28 08:43:31;;;;;;;1.00;0.80;;;13.00;99.90;13.70;100406.00;;;;4966533;28;87900;-67
2022/05/28 08:45:57;;;;;;;0.83;0.53;;;13.40;99.90;14.00;100410.00;;;;4950123;28;87700;-67
2022/05/28 08:48:40;;;;;;;1.70;0.60;;;13.80;99.90;14.20;100411.00;;;;4966482;28;88760;-66
2022/05/28 08:51:16;;;;;;;0.97;0.70;;;14.00;99.90;14.60;100403.00;;;;4946468;28;88542;-66
2022/05/28 08:54:29;;;;;;;4.13;1.03;;;14.40;98.70;14.80;100414.00;;;;4949467;28;97386;-67
2022/05/28 08:57:02;;;;;;;1.23;0.80;;;14.70;94.60;14.80;100410.00;;;;4952994;28;88011;-67
2022/05/28 08:59:35;;;;;;;1.10;0.53;;;14.70;91.30;14.70;100410.00;;;;4944820;28;87423;-66
2022/05/28 09:02:01;;;;;;;2.53;0.60;;;14.70;91.50;14.70;100415.00;;;;4956983;28;92035;-66
2022/05/28 09:04:36;;;;;;;0.47;0.47;;;14.60;90.70;14.70;100415.00;;;;4947502;28;106818;-67
2022/05/28 09:07:14;;;;;;;1.90;0.70;;;14.60;90.20;14.70;100414.00;;;;4952554;28;88765;-66
2022/05/28 09:09:46;;;;;;;0.73;0.50;;;14.60;89.30;14.70;100412.00;;;;4970704;28;87995;-65
2022/05/28 09:12:28;;;;;;;0.30;0.30;;;14.60;87.50;14.60;100426.00;;;;4971452;28;87953;-66
2022/05/28 09:14:54;;;;;;;10.23;0.67;;;14.60;87.70;14.60;100421.00;;;;4940370;28;89224;-65
2022/05/28 09:17:32;;;;;;;0.60;0.60;;;14.60;88.00;14.60;100426.00;;;;4945968;28;108987;-66
2022/05/28 09:20:09;;;;;;;2.30;0.40;;;14.50;86.90;14.50;100417.00;;;;4950446;28;96700;-66
2022/05/28 09:22:34;;;;;;;0.43;0.43;;;14.50;84.30;14.40;100430.00;;;;4971159;28;87841;-66
2022/05/28 09:25:00;;;;;;;5.90;1.03;;;14.40;84.00;14.30;100435.00;;;;4964999;28;110905;-66
2022/05/28 09:28:11;;;;;;;0.50;0.50;;;14.30;84.10;14.20;100444.00;;;;4970236;28;97489;-66
2022/05/28 09:31:06;;;;;;;1.43;0.73;;;14.20;84.90;14.20;100451.00;;;;4959626;28;87991;-65
2022/05/28 09:33:58;;;;;;;1.80;0.77;;;14.10;85.60;14.10;100439.00;;;;4927823;28;98316;-66
2022/05/28 09:36:35;;;;;;;0.80;0.80;;;14.10;87.10;13.80;100436.00;;;;4971639;28;87906;-66
2022/05/28 09:39:34;;;;;;;0.43;0.43;;;13.80;90.50;13.60;100423.00;;;;4943973;28;89803;-67
2022/05/28 09:42:47;;;;;;;1.33;0.67;;;13.70;91.00;13.70;100431.00;;;;4947134;28;104388;-67
2022/05/28 09:46:01;;;;;;;2.00;0.83;;;13.60;90.50;14.10;100427.00;;;;4948629;28;108293;-67
2022/05/28 09:48:28;;;;;;;2.33;0.77;;;13.80;90.30;14.40;100420.00;;;;4965746;28;87915;-66
2022/05/28 09:50:55;;;;;;;1.17;0.73;;;14.20;86.90;14.60;100411.00;;;;4974738;28;88059;-66
2022/05/28 09:56:38;;;;;;;3.07;0.90;;;14.50;84.60;14.70;100423.00;;;;4970282;28;88099;-67
2022/05/28 09:59:29;;;;;;;1.60;1.07;;;14.60;83.40;14.90;100424.00;;;;4957425;28;87791;-66
2022/05/28 10:02:07;;;;;;;1.60;1.07;;;14.70;83.40;15.10;100432.00;;;;4963978;28;88721;-66
2022/05/28 10:04:53;;;;;;;0.60;0.40;;;14.80;81.50;15.30;100432.00;;;;4951409;28;88543;-65
2022/05/28 10:07:45;;;;;;;2.47;0.80;;;15.00;82.00;15.50;100432.00;;;;4947366;28;105015;-66
2022/05/28 10:10:28;;;;;;;3.50;0.73;;;15.30;80.60;15.80;100425.00;;;;4929853;28;87916;-65
2022/05/28 10:13:12;;;;;;;1.05;0.75;;;15.50;78.80;16.00;100436.00;;;;4972450;28;87661;-66
2022/05/28 10:15:56;;;;;;;0.70;0.50;;;15.70;78.20;16.40;100428.00;;;;4967032;28;88013;-66
2022/05/28 10:18:34;;;;;;;1.48;0.50;;;16.10;76.40;16.50;100424.00;;;;4970650;28;88270;-66
2022/05/28 10:21:21;;;;;;;2.17;0.75;;;16.30;70.90;16.50;100440.00;;;;4955719;28;103762;-67
2022/05/28 10:23:53;;;;;;;0.90;0.77;;;16.30;69.70;16.40;100417.00;;;;4951589;28;88060;-66
2022/05/28 10:26:29;;;;;;;0.75;0.70;;;16.30;67.70;16.30;100431.00;;;;4954269;28;88585;-66
2022/05/28 10:29:00;;;;;;;1.25;0.38;;;16.30;67.70;16.30;100426.00;;;;4946523;28;88967;-67
2022/05/28 10:31:38;;;;;;;3.20;0.68;;;16.10;66.40;16.10;100421.00;;;;4951196;28;87855;-67
2022/05/28 10:34:05;;;;;;;2.20;0.68;;;16.10;66.80;16.00;100422.00;;;;4925729;28;88343;-68
2022/05/28 10:36:35;;;;;;;2.47;0.88;;;15.90;67.70;15.90;100447.00;;;;4937569;28;87775;-66
2022/05/28 10:39:17;;;;;;;0.40;0.40;;;15.80;67.70;15.50;100446.00;;;;4950846;28;88189;-67
2022/05/28 10:41:44;;;;;;;1.45;0.52;;;15.60;70.60;15.40;100442.00;;;;4931322;28;87666;-66
2022/05/28 10:44:15;;;;;;;1.58;0.60;;;15.30;73.50;15.30;100433.00;;;;4931273;28;87726;-66
2022/05/28 10:47:00;;;;;;;2.92;0.90;;;15.20;72.40;15.40;100445.00;;;;4938459;28;87290;-66
2022/05/28 10:50:12;;;;;;;1.00;0.70;;;15.30;73.00;15.80;100425.00;;;;4953229;28;87787;-68
2022/05/28 10:53:22;;;;;;;1.90;1.05;;;15.50;69.60;16.20;100438.00;;;;4945659;28;88008;-66
2022/05/28 10:56:44;;;;;;;1.00;0.55;;;15.80;70.60;16.80;100444.00;;;;4934744;28;88671;-65
2022/05/28 10:59:22;;;;;;;1.77;0.90;;;16.30;69.70;17.10;100429.00;;;;4947771;28;87903;-67
2022/05/28 11:02:25;;;;;;;4.40;1.02;;;16.70;67.10;17.40;100424.00;;;;4935457;28;87978;-68
2022/05/28 11:05:00;;;;;;;0.38;0.35;;;17.00;66.10;17.80;100423.00;;;;4962948;28;89660;-67
2022/05/28 11:08:09;;;;;;;3.53;0.65;;;17.40;65.60;18.20;100409.00;;;;4971487;28;87938;-67
2022/05/28 11:11:06;;;;;;;3.65;0.73;;;17.70;63.30;18.30;100422.00;;;;4957603;28;87743;-67
2022/05/28 11:13:44;;;;;;;1.08;0.65;;;18.00;62.40;18.50;100410.00;;;;4965200;28;88219;-68